createdAt,value
2018-11-14T00:00:55.614Z,1023.33
2018-11-14T00:01:55.591Z,1023.37
2018-11-14T00:02:55.555Z,1023.47
2018-11-14T00:03:55.523Z,1023.36
2018-11-14T00:04:55.500Z,1023.35
2018-11-14T00:05:55.465Z,1023.48
2018-11-14T00:06:55.435Z,1023.47
2018-11-14T00:07:55.405Z,1023.46
2018-11-14T00:08:55.376Z,1023.42
2018-11-14T00:09:55.348Z,1023.59
2018-11-14T00:10:55.326Z,1023.42
2018-11-14T00:11:55.293Z,1023.35
2018-11-14T00:12:55.260Z,1023.54
2018-11-14T00:13:55.230Z,1023.45
2018-11-14T00:14:55.201Z,1023.49
2018-11-14T00:15:55.194Z,1023.65
2018-11-14T00:16:55.141Z,1023.65
2018-11-14T00:17:55.115Z,1023.53
2018-11-14T00:18:55.083Z,1023.54
2018-11-14T00:19:55.278Z,1023.49
2018-11-14T00:20:55.025Z,1023.53
2018-11-14T00:21:54.995Z,1023.57
2018-11-14T00:22:54.989Z,1023.58
2018-11-14T00:23:55.387Z,1023.57
2018-11-14T00:24:55.052Z,1023.59
2018-11-14T00:25:54.879Z,1023.68
2018-11-14T00:26:54.849Z,1023.67
2018-11-14T00:27:54.856Z,1023.62
2018-11-14T00:28:54.790Z,1023.73
2018-11-14T00:29:54.764Z,1023.69
2018-11-14T00:30:54.732Z,1023.67
2018-11-14T00:31:54.703Z,1023.70
2018-11-14T00:32:54.696Z,1023.67
2018-11-14T00:33:54.652Z,1023.75
2018-11-14T00:34:54.725Z,1023.74
2018-11-14T00:35:54.586Z,1023.71
2018-11-14T00:36:54.556Z,1023.88
2018-11-14T00:37:54.526Z,1023.87
2018-11-14T00:38:54.500Z,1023.82
2018-11-14T00:39:54.469Z,1023.84
2018-11-14T00:40:54.438Z,1023.71
2018-11-14T00:41:54.413Z,1023.80
2018-11-14T00:42:54.382Z,1023.91
2018-11-14T00:43:54.350Z,1023.74
2018-11-14T00:44:54.322Z,1023.90
2018-11-14T00:45:54.294Z,1023.81
2018-11-14T00:46:54.263Z,1023.99
2018-11-14T00:47:54.233Z,1023.87
2018-11-14T00:48:54.204Z,1023.94
2018-11-14T00:49:54.174Z,1023.87
2018-11-14T00:50:54.147Z,1023.94
2018-11-14T00:51:54.116Z,1023.90
2018-11-14T00:52:54.087Z,1023.96
2018-11-14T00:53:54.057Z,1023.89
2018-11-14T00:54:54.028Z,1023.93
2018-11-14T00:55:54.035Z,1023.85
2018-11-14T00:56:53.970Z,1023.86
2018-11-14T00:57:53.939Z,1023.90
2018-11-14T00:58:53.911Z,1023.96
2018-11-14T00:59:53.938Z,1023.79
2018-11-14T01:00:53.860Z,1023.76
2018-11-14T01:01:53.822Z,1023.89
2018-11-14T01:02:53.792Z,1023.93
2018-11-14T01:03:53.786Z,1023.83
2018-11-14T01:04:53.733Z,1023.78
2018-11-14T01:05:53.705Z,1023.88
2018-11-14T01:06:53.679Z,1023.93
2018-11-14T01:07:53.645Z,1023.97
2018-11-14T01:08:53.615Z,1024.03
2018-11-14T01:09:54.101Z,1024.07
2018-11-14T01:10:53.561Z,1024.00
2018-11-14T01:11:53.534Z,1024.00
2018-11-14T01:12:53.516Z,1023.99
2018-11-14T01:13:53.468Z,1024.19
2018-11-14T01:14:53.440Z,1024.04
2018-11-14T01:15:53.409Z,1024.12
2018-11-14T01:16:53.380Z,1024.32
2018-11-14T01:17:53.351Z,1024.21
2018-11-14T01:18:53.326Z,1024.11
2018-11-14T01:19:53.318Z,1024.13
2018-11-14T01:20:53.263Z,1024.15
2018-11-14T01:21:53.234Z,1024.16
2018-11-14T01:22:53.204Z,1024.16
2018-11-14T01:23:53.177Z,1024.12
2018-11-14T01:24:53.145Z,1024.24
2018-11-14T01:25:53.116Z,1024.26
2018-11-14T01:26:53.099Z,1024.22
2018-11-14T01:27:53.055Z,1024.22
2018-11-14T01:28:53.048Z,1024.30
2018-11-14T01:29:52.998Z,1024.22
2018-11-14T01:30:52.970Z,1024.37
2018-11-14T01:31:52.943Z,1024.30
2018-11-14T01:32:52.910Z,1024.37
2018-11-14T01:33:52.897Z,1024.37
2018-11-14T01:34:52.850Z,1024.36
2018-11-14T01:35:52.842Z,1024.28
2018-11-14T01:36:52.792Z,1024.33
2018-11-14T01:37:52.766Z,1024.34
2018-11-14T01:38:52.752Z,1024.35
2018-11-14T01:39:52.703Z,1024.34
2018-11-14T01:40:52.673Z,1024.26
2018-11-14T01:41:52.645Z,1024.33
2018-11-14T01:42:52.627Z,1024.42
2018-11-14T01:43:52.585Z,1024.33
2018-11-14T01:44:52.556Z,1024.33
2018-11-14T01:45:52.529Z,1024.41
2018-11-14T01:46:52.497Z,1024.46
2018-11-14T01:47:52.472Z,1024.51
2018-11-14T01:48:52.438Z,1024.47
2018-11-14T01:49:52.409Z,1024.43
2018-11-14T01:50:52.381Z,1024.39
2018-11-14T01:51:52.349Z,1024.47
2018-11-14T01:52:52.320Z,1024.44
2018-11-14T01:53:52.293Z,1024.35
2018-11-14T01:54:52.263Z,1024.37
2018-11-14T01:55:52.232Z,1024.38
2018-11-14T01:56:52.201Z,1024.35
2018-11-14T01:57:52.179Z,1024.23
2018-11-14T01:58:52.145Z,1024.33
2018-11-14T01:59:52.113Z,1024.29
2018-11-14T02:00:52.084Z,1024.25
2018-11-14T02:01:52.054Z,1024.33
2018-11-14T02:02:52.025Z,1024.18
2018-11-14T02:03:51.995Z,1024.30
2018-11-14T02:04:51.965Z,1024.26
2018-11-14T02:05:51.938Z,1024.22
2018-11-14T02:06:51.913Z,1024.26
2018-11-14T02:07:51.878Z,1024.25
2018-11-14T02:08:51.848Z,1024.16
2018-11-14T02:09:51.827Z,1024.17
2018-11-14T02:10:51.791Z,1024.25
2018-11-14T02:11:51.760Z,1024.26
2018-11-14T02:12:51.729Z,1024.23
2018-11-14T02:13:51.700Z,1024.30
2018-11-14T02:14:51.671Z,1024.22
2018-11-14T02:15:51.641Z,1024.24
2018-11-14T02:16:51.611Z,1024.29
2018-11-14T02:17:51.583Z,1024.15
2018-11-14T02:18:51.558Z,1024.27
2018-11-14T02:19:51.527Z,1024.19
2018-11-14T02:20:51.492Z,1024.28
2018-11-14T02:21:51.470Z,1024.24
2018-11-14T02:22:51.434Z,1024.26
2018-11-14T02:23:51.403Z,1024.21
2018-11-14T02:24:51.379Z,1024.13
2018-11-14T02:25:51.344Z,1024.27
2018-11-14T02:26:51.318Z,1024.26
2018-11-14T02:27:51.285Z,1024.21
2018-11-14T02:28:51.258Z,1024.27
2018-11-14T02:29:51.228Z,1024.21
2018-11-14T02:30:51.199Z,1024.26
2018-11-14T02:31:51.165Z,1024.21
2018-11-14T02:32:51.136Z,1024.22
2018-11-14T02:33:51.116Z,1024.21
2018-11-14T02:34:51.127Z,1024.25
2018-11-14T02:35:51.076Z,1024.20
2018-11-14T02:36:51.018Z,1024.30
2018-11-14T02:37:50.989Z,1024.35
2018-11-14T02:38:50.978Z,1024.25
2018-11-14T02:39:50.928Z,1024.24
2018-11-14T02:40:50.899Z,1024.30
2018-11-14T02:41:50.874Z,1024.17
2018-11-14T02:42:50.849Z,1024.31
2018-11-14T02:43:50.809Z,1024.21
2018-11-14T02:44:50.785Z,1024.16
2018-11-14T02:45:50.751Z,1024.34
2018-11-14T02:46:50.726Z,1024.30
2018-11-14T02:47:50.689Z,1024.26
2018-11-14T02:48:50.661Z,1024.30
2018-11-14T02:49:50.631Z,1024.29
2018-11-14T02:50:50.602Z,1024.29
2018-11-14T02:51:50.577Z,1024.32
2018-11-14T02:52:50.542Z,1024.26
2018-11-14T02:53:50.514Z,1024.28
2018-11-14T02:54:50.483Z,1024.45
2018-11-14T02:55:50.452Z,1024.35
2018-11-14T02:56:50.429Z,1024.40
2018-11-14T02:57:50.394Z,1024.38
2018-11-14T02:58:50.364Z,1024.36
2018-11-14T02:59:50.337Z,1024.41
2018-11-14T03:00:50.304Z,1024.41
2018-11-14T03:01:50.280Z,1024.34
2018-11-14T03:02:50.246Z,1024.37
2018-11-14T03:03:50.214Z,1024.44
2018-11-14T03:04:50.185Z,1024.38
2018-11-14T03:05:50.155Z,1024.39
2018-11-14T03:06:50.133Z,1024.42
2018-11-14T03:07:50.095Z,1024.46
2018-11-14T03:08:50.068Z,1024.37
2018-11-14T03:09:50.037Z,1024.39
2018-11-14T03:10:50.009Z,1024.41
2018-11-14T03:11:49.975Z,1024.51
2018-11-14T03:12:49.945Z,1024.50
2018-11-14T03:13:49.916Z,1024.43
2018-11-14T03:14:49.889Z,1024.49
2018-11-14T03:15:49.860Z,1024.45
2018-11-14T03:16:49.826Z,1024.49
2018-11-14T03:17:49.798Z,1024.49
2018-11-14T03:18:49.767Z,1024.45
2018-11-14T03:19:49.738Z,1024.52
2018-11-14T03:20:49.708Z,1024.43
2018-11-14T03:21:49.678Z,1024.52
2018-11-14T03:22:49.660Z,1024.44
2018-11-14T03:23:49.617Z,1024.44
2018-11-14T03:24:49.588Z,1024.44
2018-11-14T03:25:49.562Z,1024.59
2018-11-14T03:26:49.529Z,1024.38
2018-11-14T03:27:49.510Z,1024.39
2018-11-14T03:28:49.470Z,1024.39
2018-11-14T03:29:49.438Z,1024.38
2018-11-14T03:30:49.408Z,1024.34
2018-11-14T03:31:49.400Z,1024.49
2018-11-14T03:32:49.351Z,1024.24
2018-11-14T03:33:49.319Z,1024.43
2018-11-14T03:34:49.492Z,1024.44
2018-11-14T03:35:49.259Z,1024.47
2018-11-14T03:36:49.228Z,1024.44
2018-11-14T03:37:49.199Z,1024.47
2018-11-14T03:38:49.168Z,1024.35
2018-11-14T03:39:49.138Z,1024.41
2018-11-14T03:40:49.112Z,1024.53
2018-11-14T03:41:49.079Z,1024.40
2018-11-14T03:42:49.058Z,1024.57
2018-11-14T03:43:49.020Z,1024.56
2018-11-14T03:44:48.990Z,1024.49
2018-11-14T03:45:48.968Z,1024.52
2018-11-14T03:46:48.929Z,1024.53
2018-11-14T03:47:48.900Z,1024.49
2018-11-14T03:48:48.875Z,1024.53
2018-11-14T03:49:48.846Z,1024.48
2018-11-14T03:50:48.812Z,1024.39
2018-11-14T03:51:48.781Z,1024.44
2018-11-14T03:52:48.752Z,1024.34
2018-11-14T03:53:48.722Z,1024.51
2018-11-14T03:54:48.693Z,1024.57
2018-11-14T03:55:48.661Z,1024.47
2018-11-14T03:56:48.645Z,1024.45
2018-11-14T03:57:48.601Z,1024.43
2018-11-14T03:58:48.576Z,1024.48
2018-11-14T03:59:48.542Z,1024.51
2018-11-14T04:00:48.514Z,1024.45
2018-11-14T04:01:48.486Z,1024.53
2018-11-14T04:02:48.456Z,1024.42
2018-11-14T04:03:48.423Z,1024.40
2018-11-14T04:04:48.392Z,1024.49
2018-11-14T04:05:48.614Z,1024.35
2018-11-14T04:06:48.335Z,1024.35
2018-11-14T04:07:48.302Z,1024.38
2018-11-14T04:08:48.273Z,1024.36
2018-11-14T04:09:48.244Z,1024.28
2018-11-14T04:10:48.215Z,1024.31
2018-11-14T04:11:48.191Z,1024.32
2018-11-14T04:12:48.153Z,1024.30
2018-11-14T04:13:48.126Z,1024.42
2018-11-14T04:14:48.095Z,1024.44
2018-11-14T04:15:48.064Z,1024.49
2018-11-14T04:16:48.034Z,1024.45
2018-11-14T04:17:48.004Z,1024.49
2018-11-14T04:18:47.976Z,1024.50
2018-11-14T04:19:47.945Z,1024.55
2018-11-14T04:20:47.918Z,1024.57
2018-11-14T04:21:47.887Z,1024.56
2018-11-14T04:22:47.855Z,1024.59
2018-11-14T04:23:47.825Z,1024.39
2018-11-14T04:24:47.795Z,1024.62
2018-11-14T04:25:47.765Z,1024.59
2018-11-14T04:26:47.736Z,1024.56
2018-11-14T04:27:47.812Z,1024.61
2018-11-14T04:28:47.678Z,1024.58
2018-11-14T04:29:47.647Z,1024.65
2018-11-14T04:30:47.617Z,1024.52
2018-11-14T04:31:47.585Z,1024.69
2018-11-14T04:32:47.559Z,1024.59
2018-11-14T04:33:47.530Z,1024.76
2018-11-14T04:34:47.501Z,1024.54
2018-11-14T04:35:47.470Z,1024.68
2018-11-14T04:36:47.436Z,1024.67
2018-11-14T04:37:47.410Z,1024.62
2018-11-14T04:38:47.385Z,1024.60
2018-11-14T04:39:47.346Z,1024.53
2018-11-14T04:40:47.324Z,1024.49
2018-11-14T04:41:47.288Z,1024.68
2018-11-14T04:42:47.275Z,1024.47
2018-11-14T04:43:47.230Z,1024.56
2018-11-14T04:44:47.198Z,1024.48
2018-11-14T04:45:47.171Z,1024.45
2018-11-14T04:46:47.139Z,1024.48
2018-11-14T04:47:47.119Z,1024.50
2018-11-14T04:48:47.082Z,1024.51
2018-11-14T04:49:47.060Z,1024.50
2018-11-14T04:50:47.020Z,1024.68
2018-11-14T04:51:46.990Z,1024.62
2018-11-14T04:52:46.959Z,1024.82
2018-11-14T04:53:46.931Z,1024.56
2018-11-14T04:54:46.903Z,1024.62
2018-11-14T04:55:46.871Z,1024.67
2018-11-14T04:56:46.842Z,1024.74
2018-11-14T04:57:46.961Z,1024.65
2018-11-14T04:58:46.796Z,1024.63
2018-11-14T04:59:46.771Z,1024.74
2018-11-14T05:00:46.722Z,1024.66
2018-11-14T05:01:46.692Z,1024.61
2018-11-14T05:02:46.662Z,1024.64
2018-11-14T05:03:46.631Z,1024.70
2018-11-14T05:04:46.603Z,1024.76
2018-11-14T05:05:46.573Z,1024.65
2018-11-14T05:06:46.588Z,1024.59
2018-11-14T05:07:46.513Z,1024.58
2018-11-14T05:08:46.483Z,1024.63
2018-11-14T05:09:46.462Z,1024.67
2018-11-14T05:10:46.424Z,1024.69
2018-11-14T05:11:46.394Z,1024.57
2018-11-14T05:12:46.371Z,1024.72
2018-11-14T05:13:46.335Z,1024.66
2018-11-14T05:14:46.306Z,1024.70
2018-11-14T05:15:46.277Z,1024.76
2018-11-14T05:16:46.245Z,1024.82
2018-11-14T05:17:46.218Z,1024.78
2018-11-14T05:18:46.188Z,1024.89
2018-11-14T05:19:46.159Z,1024.82
2018-11-14T05:20:46.126Z,1024.86
2018-11-14T05:21:46.101Z,1024.82
2018-11-14T05:22:46.075Z,1024.82
2018-11-14T05:23:46.039Z,1024.84
2018-11-14T05:24:46.181Z,1024.77
2018-11-14T05:25:45.977Z,1024.93
2018-11-14T05:26:45.950Z,1025.01
2018-11-14T05:27:45.919Z,1024.87
2018-11-14T05:28:45.896Z,1024.84
2018-11-14T05:29:45.862Z,1025.05
2018-11-14T05:30:45.830Z,1024.91
2018-11-14T05:31:45.856Z,1024.99
2018-11-14T05:32:45.770Z,1025.15
2018-11-14T05:33:45.739Z,1025.13
2018-11-14T05:34:45.710Z,1025.08
2018-11-14T05:35:45.680Z,1025.14
2018-11-14T05:36:45.650Z,1025.11
2018-11-14T05:37:45.624Z,1025.29
2018-11-14T05:38:45.595Z,1025.04
2018-11-14T05:39:45.654Z,1025.12
2018-11-14T05:40:45.531Z,1024.94
2018-11-14T05:41:45.501Z,1024.94
2018-11-14T05:42:45.473Z,1025.02
2018-11-14T05:43:45.443Z,1025.06
2018-11-14T05:44:45.416Z,1024.91
2018-11-14T05:45:45.383Z,1025.00
2018-11-14T05:46:45.353Z,1025.02
2018-11-14T05:47:45.347Z,1025.10
2018-11-14T05:48:45.292Z,1025.08
2018-11-14T05:49:45.268Z,1025.05
2018-11-14T05:50:46.084Z,1025.10
2018-11-14T05:51:45.203Z,1024.94
2018-11-14T05:52:45.181Z,1025.02
2018-11-14T05:53:45.150Z,1025.01
2018-11-14T05:54:45.160Z,1025.00
2018-11-14T05:55:45.084Z,1024.91
2018-11-14T05:56:45.055Z,1025.03
2018-11-14T05:57:45.039Z,1024.96
2018-11-14T05:58:44.995Z,1024.99
2018-11-14T05:59:44.969Z,1024.96
2018-11-14T06:00:44.944Z,1025.01
2018-11-14T06:01:44.910Z,1025.06
2018-11-14T06:02:44.878Z,1025.11
2018-11-14T06:03:44.848Z,1025.04
2018-11-14T06:04:44.817Z,1025.06
2018-11-14T06:05:44.796Z,1024.98
2018-11-14T06:06:44.758Z,1025.08
2018-11-14T06:07:44.729Z,1025.06
2018-11-14T06:08:44.698Z,1025.05
2018-11-14T06:09:44.667Z,1025.05
2018-11-14T06:10:44.641Z,1025.06
2018-11-14T06:11:44.609Z,1025.05
2018-11-14T06:12:44.582Z,1025.05
2018-11-14T06:13:44.550Z,1025.04
2018-11-14T06:14:44.520Z,1025.04
2018-11-14T06:15:44.489Z,1025.14
2018-11-14T06:16:44.460Z,1025.18
2018-11-14T06:17:44.429Z,1025.15
2018-11-14T06:18:44.405Z,1025.20
2018-11-14T06:19:44.371Z,1025.17
2018-11-14T06:20:44.341Z,1025.24
2018-11-14T06:21:44.369Z,1025.40
2018-11-14T06:22:44.290Z,1025.29
2018-11-14T06:23:44.267Z,1025.35
2018-11-14T06:24:44.223Z,1025.31
2018-11-14T06:25:44.195Z,1025.34
2018-11-14T06:26:44.165Z,1025.32
2018-11-14T06:27:44.134Z,1025.35
2018-11-14T06:28:44.104Z,1025.33
2018-11-14T06:29:44.113Z,1025.38
2018-11-14T06:30:44.045Z,1025.34
2018-11-14T06:31:44.015Z,1025.39
2018-11-14T06:32:43.985Z,1025.41
2018-11-14T06:33:43.955Z,1025.39
2018-11-14T06:34:43.927Z,1025.40
2018-11-14T06:35:43.896Z,1025.43
2018-11-14T06:36:43.878Z,1025.43
2018-11-14T06:37:43.837Z,1025.39
2018-11-14T06:38:43.809Z,1025.43
2018-11-14T06:39:43.777Z,1025.38
2018-11-14T06:40:43.754Z,1025.28
2018-11-14T06:41:43.759Z,1025.31
2018-11-14T06:42:43.690Z,1025.30
2018-11-14T06:43:43.663Z,1025.28
2018-11-14T06:44:43.641Z,1025.23
2018-11-14T06:45:43.601Z,1025.27
2018-11-14T06:46:43.569Z,1025.25
2018-11-14T06:47:43.540Z,1025.32
2018-11-14T06:48:43.519Z,1025.44
2018-11-14T06:49:43.483Z,1025.49
2018-11-14T06:50:43.452Z,1025.45
2018-11-14T06:51:43.436Z,1025.38
2018-11-14T06:52:43.396Z,1025.53
2018-11-14T06:53:43.367Z,1025.50
2018-11-14T06:54:43.333Z,1025.39
2018-11-14T06:55:43.307Z,1025.45
2018-11-14T06:56:43.273Z,1025.55
2018-11-14T06:57:43.243Z,1025.44
2018-11-14T06:58:43.289Z,1025.50
2018-11-14T06:59:43.286Z,1025.51
2018-11-14T07:00:43.165Z,1025.49
2018-11-14T07:01:43.128Z,1025.46
2018-11-14T07:02:43.100Z,1025.48
2018-11-14T07:03:43.064Z,1025.52
2018-11-14T07:04:43.035Z,1025.54
2018-11-14T07:05:43.166Z,1025.52
2018-11-14T07:06:42.975Z,1025.54
2018-11-14T07:07:42.945Z,1025.56
2018-11-14T07:08:42.916Z,1025.54
2018-11-14T07:09:42.889Z,1025.58
2018-11-14T07:10:42.856Z,1025.63
2018-11-14T07:11:42.825Z,1025.62
2018-11-14T07:14:42.739Z,1025.69
2018-11-14T07:15:42.729Z,1025.75
2018-11-14T07:16:42.678Z,1025.58
2018-11-14T07:17:42.652Z,1025.67
2018-11-14T07:18:42.622Z,1025.67
2018-11-14T07:19:42.590Z,1025.68
2018-11-14T07:20:42.563Z,1025.72
2018-11-14T07:21:42.531Z,1025.72
2018-11-14T07:22:42.502Z,1025.70
2018-11-14T07:23:42.503Z,1025.66
2018-11-14T07:24:42.496Z,1025.69
2018-11-14T07:25:42.414Z,1025.69
2018-11-14T07:26:42.383Z,1025.71
2018-11-14T07:27:42.353Z,1025.68
2018-11-14T07:28:42.325Z,1025.76
2018-11-14T07:29:42.296Z,1025.76
2018-11-14T07:30:42.265Z,1025.78
2018-11-14T07:31:42.241Z,1025.79
2018-11-14T07:32:42.207Z,1025.79
2018-11-14T07:33:42.176Z,1025.81
2018-11-14T07:34:42.148Z,1025.85
2018-11-14T07:35:42.118Z,1025.80
2018-11-14T07:36:42.096Z,1025.82
2018-11-14T07:37:42.062Z,1025.84
2018-11-14T07:38:42.030Z,1025.83
2018-11-14T07:39:42.003Z,1025.83
2018-11-14T07:40:41.974Z,1025.87
2018-11-14T07:41:41.942Z,1025.89
2018-11-14T07:42:41.913Z,1025.92
2018-11-14T07:43:42.018Z,1025.95
2018-11-14T07:44:41.859Z,1025.98
2018-11-14T07:45:41.825Z,1025.86
2018-11-14T07:46:41.799Z,1025.93
2018-11-14T07:47:41.772Z,1025.95
2018-11-14T07:48:41.736Z,1025.92
2018-11-14T07:49:41.711Z,1026.09
2018-11-14T07:50:41.680Z,1025.99
2018-11-14T07:51:41.648Z,1026.05
2018-11-14T07:52:41.620Z,1026.03
2018-11-14T07:53:41.591Z,1025.99
2018-11-14T07:54:41.630Z,1026.08
2018-11-14T07:55:41.532Z,1025.89
2018-11-14T07:56:41.503Z,1026.09
2018-11-14T07:57:41.473Z,1026.10
2018-11-14T07:58:41.450Z,1026.10
2018-11-14T07:59:41.414Z,1026.04
2018-11-14T08:00:41.393Z,1026.07
2018-11-14T08:01:41.356Z,1026.09
2018-11-14T08:02:41.328Z,1026.04
2018-11-14T08:03:41.297Z,1026.03
2018-11-14T08:04:41.268Z,1026.05
2018-11-14T08:05:41.238Z,1026.06
2018-11-14T08:06:41.212Z,1026.05
2018-11-14T08:07:41.198Z,1026.08
2018-11-14T08:08:41.155Z,1026.10
2018-11-14T08:09:41.129Z,1026.03
2018-11-14T08:10:41.096Z,1026.04
2018-11-14T08:11:41.065Z,1026.00
2018-11-14T08:12:41.033Z,1026.06
2018-11-14T08:13:41.005Z,1026.06
2018-11-14T08:14:40.976Z,1026.05
2018-11-14T08:15:40.949Z,1026.04
2018-11-14T08:16:40.917Z,1025.95
2018-11-14T08:17:40.889Z,1026.08
2018-11-14T08:18:40.945Z,1026.08
2018-11-14T08:19:40.830Z,1026.12
2018-11-14T08:20:40.800Z,1026.10
2018-11-14T08:21:40.771Z,1026.07
2018-11-14T08:22:40.741Z,1026.15
2018-11-14T08:23:40.712Z,1026.07
2018-11-14T08:24:40.684Z,1026.19
2018-11-14T08:25:40.657Z,1026.14
2018-11-14T08:26:40.626Z,1026.30
2018-11-14T08:27:40.596Z,1026.31
2018-11-14T08:28:40.580Z,1026.31
2018-11-14T08:29:40.542Z,1026.13
2018-11-14T08:30:40.638Z,1026.14
2018-11-14T08:31:40.484Z,1026.22
2018-11-14T08:32:40.450Z,1026.22
2018-11-14T08:33:40.426Z,1026.31
2018-11-14T08:34:40.395Z,1026.33
2018-11-14T08:35:40.363Z,1026.38
2018-11-14T08:36:40.333Z,1026.40
2018-11-14T08:37:40.303Z,1026.49
2018-11-14T08:38:40.295Z,1026.46
2018-11-14T08:39:40.244Z,1026.41
2018-11-14T08:40:40.216Z,1026.35
2018-11-14T08:41:40.187Z,1026.32
2018-11-14T08:42:40.160Z,1026.43
2018-11-14T08:43:40.127Z,1026.46
2018-11-14T08:44:40.101Z,1026.53
2018-11-14T08:45:40.069Z,1026.54
2018-11-14T08:46:40.040Z,1026.50
2018-11-14T08:47:40.021Z,1026.44
2018-11-14T08:48:39.993Z,1026.35
2018-11-14T08:49:39.950Z,1026.39
2018-11-14T08:50:39.922Z,1026.30
2018-11-14T08:51:39.897Z,1026.36
2018-11-14T08:52:39.863Z,1026.35
2018-11-14T08:53:39.835Z,1026.33
2018-11-14T08:54:39.807Z,1026.27
2018-11-14T08:55:39.781Z,1026.49
2018-11-14T08:56:39.749Z,1026.42
2018-11-14T08:57:39.718Z,1026.32
2018-11-14T08:58:39.690Z,1026.42
2018-11-14T08:59:39.664Z,1026.36
2018-11-14T09:00:39.634Z,1026.42
2018-11-14T09:01:39.614Z,1026.54
2018-11-14T09:02:39.575Z,1026.43
2018-11-14T09:03:39.544Z,1026.48
2018-11-14T09:04:39.514Z,1026.48
2018-11-14T09:05:39.487Z,1026.47
2018-11-14T09:06:39.465Z,1026.47
2018-11-14T09:07:39.445Z,1026.60
2018-11-14T09:08:39.399Z,1026.56
2018-11-14T09:09:39.379Z,1026.67
2018-11-14T09:10:39.342Z,1026.67
2018-11-14T09:11:39.312Z,1026.67
2018-11-14T09:12:39.368Z,1026.73
2018-11-14T09:13:39.255Z,1026.75
2018-11-14T09:14:39.263Z,1026.77
2018-11-14T09:15:39.199Z,1026.79
2018-11-14T09:16:39.170Z,1026.82
2018-11-14T09:17:39.143Z,1026.78
2018-11-14T09:18:39.198Z,1026.89
2018-11-14T09:19:39.132Z,1026.79
2018-11-14T09:20:39.058Z,1026.80
2018-11-14T09:21:39.032Z,1026.82
2018-11-14T09:22:38.996Z,1026.78
2018-11-14T09:23:39.022Z,1026.80
2018-11-14T09:24:38.949Z,1026.79
2018-11-14T09:25:38.917Z,1026.76
2018-11-14T09:26:38.882Z,1026.74
2018-11-14T09:27:38.856Z,1026.77
2018-11-14T09:28:38.829Z,1026.77
2018-11-14T09:29:38.796Z,1026.77
2018-11-14T09:30:38.770Z,1026.82
2018-11-14T09:31:38.739Z,1026.79
2018-11-14T09:32:38.710Z,1026.76
2018-11-14T09:33:38.691Z,1026.79
2018-11-14T09:34:38.696Z,1026.82
2018-11-14T09:35:38.625Z,1026.84
2018-11-14T09:36:38.598Z,1026.79
2018-11-14T09:37:38.573Z,1026.93
2018-11-14T09:38:38.551Z,1026.99
2018-11-14T09:39:38.512Z,1026.94
2018-11-14T09:40:38.553Z,1026.89
2018-11-14T09:41:38.455Z,1026.93
2018-11-14T09:42:38.433Z,1026.84
2018-11-14T09:43:38.397Z,1026.83
2018-11-14T09:44:38.451Z,1026.84
2018-11-14T09:45:38.557Z,1026.95
2018-11-14T09:46:38.315Z,1026.94
2018-11-14T09:47:38.286Z,1026.93
2018-11-14T09:48:38.316Z,1026.94
2018-11-14T09:49:38.233Z,1026.92
2018-11-14T09:50:38.205Z,1026.89
2018-11-14T09:51:38.174Z,1026.90
2018-11-14T09:52:38.147Z,1026.80
2018-11-14T09:53:38.128Z,1026.86
2018-11-14T09:54:38.093Z,1026.91
2018-11-14T09:55:38.064Z,1026.95
2018-11-14T09:56:38.073Z,1026.89
2018-11-14T09:57:38.011Z,1026.86
2018-11-14T09:58:38.043Z,1026.87
2018-11-14T09:59:37.951Z,1026.85
2018-11-14T10:00:37.934Z,1026.84
2018-11-14T10:01:37.896Z,1026.79
2018-11-14T10:02:37.888Z,1026.82
2018-11-14T10:03:37.927Z,1026.79
2018-11-14T10:04:37.811Z,1026.74
2018-11-14T10:05:37.872Z,1026.77
2018-11-14T10:06:37.756Z,1026.72
2018-11-14T10:07:37.737Z,1026.75
2018-11-14T10:08:37.700Z,1026.79
2018-11-14T10:09:37.679Z,1026.82
2018-11-14T10:10:37.643Z,1026.83
2018-11-14T10:11:37.617Z,1026.80
2018-11-14T10:12:37.589Z,1026.74
2018-11-14T10:13:37.560Z,1026.75
2018-11-14T10:14:37.533Z,1026.73
2018-11-14T10:15:37.585Z,1026.74
2018-11-14T10:16:37.475Z,1026.81
2018-11-14T10:17:37.448Z,1026.80
2018-11-14T10:18:37.425Z,1026.76
2018-11-14T10:19:37.393Z,1026.81
2018-11-14T10:20:37.366Z,1026.85
2018-11-14T10:21:37.364Z,1026.87
2018-11-14T10:22:37.311Z,1026.89
2018-11-14T10:23:37.278Z,1026.96
2018-11-14T10:24:37.253Z,1027.01
2018-11-14T10:25:37.229Z,1026.90
2018-11-14T10:26:37.198Z,1026.85
2018-11-14T10:27:37.168Z,1026.86
2018-11-14T10:28:37.144Z,1026.82
2018-11-14T10:29:37.112Z,1026.77
2018-11-14T10:30:37.088Z,1026.78
2018-11-14T10:31:37.068Z,1026.76
2018-11-14T10:32:37.235Z,1026.84
2018-11-14T10:33:37.206Z,1026.80
2018-11-14T10:34:36.976Z,1026.79
2018-11-14T10:35:36.948Z,1026.74
2018-11-14T10:36:36.919Z,1026.74
2018-11-14T10:37:36.893Z,1026.73
2018-11-14T10:38:36.867Z,1026.79
2018-11-14T10:39:36.839Z,1026.82
2018-11-14T10:40:36.811Z,1026.75
2018-11-14T10:41:36.788Z,1026.76
2018-11-14T10:42:36.762Z,1026.72
2018-11-14T10:43:36.730Z,1026.72
2018-11-14T10:44:36.703Z,1026.66
2018-11-14T10:45:36.677Z,1026.61
2018-11-14T10:46:36.666Z,1026.61
2018-11-14T10:47:36.623Z,1026.58
2018-11-14T10:48:36.595Z,1026.54
2018-11-14T10:49:36.568Z,1026.55
2018-11-14T10:50:36.541Z,1026.52
2018-11-14T10:51:36.514Z,1026.49
2018-11-14T10:52:36.486Z,1026.45
2018-11-14T10:53:36.466Z,1026.40
2018-11-14T10:54:36.441Z,1026.42
2018-11-14T10:55:36.407Z,1026.36
2018-11-14T10:56:36.378Z,1026.35
2018-11-14T10:57:36.351Z,1026.34
2018-11-14T10:58:36.344Z,1026.31
2018-11-14T10:59:36.297Z,1026.37
2018-11-14T11:00:36.270Z,1026.35
2018-11-14T11:01:36.243Z,1026.37
2018-11-14T11:02:36.216Z,1026.37
2018-11-14T11:03:36.187Z,1026.39
2018-11-14T11:04:36.162Z,1026.36
2018-11-14T11:05:36.138Z,1026.35
2018-11-14T11:06:36.106Z,1026.38
2018-11-14T11:07:36.080Z,1026.40
2018-11-14T11:08:36.159Z,1026.46
2018-11-14T11:09:36.026Z,1026.44
2018-11-14T11:10:36.004Z,1026.46
2018-11-14T11:11:35.970Z,1026.43
2018-11-14T11:12:35.943Z,1026.44
2018-11-14T11:13:35.978Z,1026.44
2018-11-14T11:14:35.890Z,1026.44
2018-11-14T11:15:35.890Z,1026.42
2018-11-14T11:16:35.858Z,1026.38
2018-11-14T11:17:35.846Z,1026.42
2018-11-14T11:18:35.799Z,1026.42
2018-11-14T11:19:35.781Z,1026.37
2018-11-14T11:20:35.748Z,1026.39
2018-11-14T11:21:35.709Z,1026.41
2018-11-14T11:22:35.670Z,1026.36
2018-11-14T11:23:35.723Z,1026.35
2018-11-14T11:24:35.617Z,1026.34
2018-11-14T11:25:35.589Z,1026.41
2018-11-14T11:26:35.562Z,1026.37
2018-11-14T11:27:35.533Z,1026.34
2018-11-14T11:28:35.507Z,1026.39
2018-11-14T11:29:35.483Z,1026.36
2018-11-14T11:30:35.486Z,1026.35
2018-11-14T11:31:35.430Z,1026.39
2018-11-14T11:32:35.396Z,1026.43
2018-11-14T11:33:35.368Z,1026.42
2018-11-14T11:34:35.341Z,1026.43
2018-11-14T11:35:35.313Z,1026.44
2018-11-14T11:36:35.284Z,1026.47
2018-11-14T11:37:35.258Z,1026.44
2018-11-14T11:38:35.240Z,1026.43
2018-11-14T11:39:35.228Z,1026.47
2018-11-14T11:40:35.181Z,1026.46
2018-11-14T11:41:35.164Z,1026.44
2018-11-14T11:42:35.123Z,1026.44
2018-11-14T11:43:35.095Z,1026.43
2018-11-14T11:44:35.112Z,1026.42
2018-11-14T11:45:35.041Z,1026.49
2018-11-14T11:46:35.015Z,1026.43
2018-11-14T11:47:34.984Z,1026.39
2018-11-14T11:48:34.957Z,1026.42
2018-11-14T11:49:34.930Z,1026.42
2018-11-14T11:50:34.903Z,1026.42
2018-11-14T11:51:34.874Z,1026.36
2018-11-14T11:52:34.847Z,1026.40
2018-11-14T11:53:34.820Z,1026.35
2018-11-14T11:54:34.793Z,1026.31
2018-11-14T11:55:34.765Z,1026.37
2018-11-14T11:56:34.737Z,1026.31
2018-11-14T11:57:34.767Z,1026.32
2018-11-14T11:58:34.684Z,1026.29
2018-11-14T11:59:34.691Z,1026.31
2018-11-14T12:00:34.814Z,1026.29
2018-11-14T12:01:34.610Z,1026.32
2018-11-14T12:02:34.588Z,1026.29
2018-11-14T12:03:34.546Z,1026.30
2018-11-14T12:04:34.528Z,1026.31
2018-11-14T12:05:34.515Z,1026.31
2018-11-14T12:06:34.623Z,1026.33
2018-11-14T12:07:34.436Z,1026.38